EW8868 Weather Reports


time (UTC)temp
F
wind
direction
speed
knots
gust
knots
rain 1hr
in
rain 24hr
in
rain mn
in
humidity
%
barometer
mb
20211017153019 57 348 1.7 0.0 0.00 0.00 0.00 59 1024.2
20211017151516 57 46 1.7 0.0 0.00 0.00 0.00 59 1024.4
20211017150008 56 67 2.6 0.0 0.00 0.00 0.00 63 1024.5
20211017144711 55 360 3.5 0.0 0.00 0.00 0.00 65 1024.3
20211017143146 54 18 0.9 0.0 0.00 0.00 0.00 68 1024.2
20211017141628 53 17 0.9 0.0 0.00 0.00 0.00 66 1024.1
20211017140101 50 49 0.0 0.0 0.00 0.00 0.00 54 1024.1
20211017134602 48 322 0.0 0.0 0.00 0.00 0.00 21 1023.9
20211017133109 47 284 0.0 0.0 0.00 0.00 0.00 100 1023.9
20211017131628 45 284 0.0 0.0 0.00 0.00 0.00 100 1023.8
20211017130104 43 284 0.0 0.0 0.00 0.00 0.00 100 1023.7
20211017124528 42 284 0.0 0.0 0.00 0.00 0.00 100 1023.4
20211017123037 41 284 0.0 0.0 0.00 0.00 0.00 100 1023.4
20211017121517 41 284 0.0 0.0 0.00 0.00 0.00 100 1023.3
20211017120018 41 284 0.0 0.0 0.00 0.00 0.00 100 1023.2
20211017114509 42 284 0.0 0.0 0.00 0.00 0.00 100 1023.1
20211017113011 42 284 0.0 0.0 0.00 0.00 0.00 100 1023.1
20211017111611 42 284 0.0 0.0 0.00 0.00 0.00 100 1023.0
20211017110129 42 284 0.0 0.0 0.00 0.00 0.00 100 1022.9
20211017104600 42 284 0.0 0.0 0.00 0.00 0.00 100 1022.8
20211017103100 42 284 0.0 0.0 0.00 0.00 0.00 100 1022.6
20211017101617 42 284 0.0 0.0 0.00 0.00 0.00 100 1022.5
20211017100053 42 284 0.0 0.0 0.00 0.00 0.00 100 1022.4
20211017094605 42 284 0.0 0.0 0.00 0.00 0.00 100 1022.3
20211017093041 42 284 0.0 0.0 0.00 0.00 0.00 100 1022.2
20211017091541 42 284 0.0 0.0 0.00 0.00 0.00 100 1022.2
20211017090110 42 284 0.0 0.0 0.00 0.00 0.00 100 1022.1
20211017084540 42 284 0.0 0.0 0.00 0.00 0.00 100 1022.1
20211017083014 42 284 0.0 0.0 0.00 0.00 0.00 100 1022.0
20211017081509 42 284 0.0 0.0 0.00 0.00 0.00 100 1022.0
20211017080004 42 284 0.0 0.0 0.00 0.00 0.00 100 1022.0
20211017074642 42 284 0.0 0.0 0.00 0.00 0.00 100 1021.8
20211017073126 43 284 0.0 0.0 0.00 0.00 0.00 100 1021.9
20211017071602 43 284 0.0 0.0 0.00 0.00 0.00 100 1022.0
20211017070122 43 284 0.0 0.0 0.00 0.00 0.00 100 1021.9
20211017064627 43 284 0.0 0.0 0.00 0.00 0.00 100 1022.0
20211017063055 43 284 0.0 0.0 0.00 0.00 0.00 100 1021.8
20211017061556 44 284 0.0 0.0 0.00 0.00 0.00 100 1021.9
20211017060040 44 284 0.0 0.0 0.00 0.00 0.00 100 1021.8
20211017054537 44 284 0.0 0.0 0.00 0.00 0.00 100 1021.7
20211017053023 44 284 0.0 0.0 0.00 0.00 0.00 4 1021.5
20211017051547 44 284 0.0 0.0 0.00 0.00 0.00 6 1021.4
20211017050014 44 284 0.0 0.0 0.00 0.00 0.06 10 1021.4
20211017044510 45 284 0.0 0.0 0.00 0.00 0.06 11 1021.4
20211017043001 45 284 0.0 0.0 0.00 0.00 0.06 8 1021.4
20211017041712 45 284 0.0 0.0 0.00 0.00 0.06 14 1021.4
20211017040121 46 284 0.0 0.0 0.00 0.00 0.06 18 1021.4
20211017034607 46 284 0.0 0.0 0.00 0.00 0.06 26 1021.3
20211017033102 46 284 0.0 0.0 0.00 0.00 0.06 31 1021.2
20211017031629 47 284 0.0 0.0 0.00 0.00 0.06 32 1021.4
20211017030108 47 284 0.0 0.0 0.00 0.00 0.06 33 1021.4
20211017024538 47 284 0.0 0.0 0.00 0.00 0.06 41 1021.2
20211017023058 48 284 0.0 0.0 0.00 0.00 0.06 44 1021.0
20211017021544 48 284 0.0 0.0 0.00 0.00 0.06 42 1020.9
20211017020031 48 284 0.0 0.0 0.00 0.00 0.06 45 1020.8
20211017014530 49 284 0.0 0.0 0.00 0.00 0.06 50 1020.7
20211017013015 49 284 0.0 0.0 0.00 0.00 0.06 53 1020.5
20211017011506 50 284 0.0 0.0 0.00 0.00 0.06 59 1020.5
20211017004656 52 284 0.0 0.0 0.00 0.00 0.06 69 1020.3
20211017003138 53 284 0.0 0.0 0.00 0.00 0.06 72 1020.2
20211017001613 54 284 0.0 0.0 0.00 0.00 0.06 73 1019.9
20211017000108 55 284 0.0 0.0 0.00 0.00 0.06 73 1019.8
20211016234839 56 284 0.0 0.0 0.00 0.00 0.06 69 1019.6
20211016233101 57 284 0.0 0.0 0.00 0.00 0.06 65 1019.5
20211016231536 59 284 0.0 0.0 0.00 0.00 0.06 61 1019.2
20211016230102 60 284 0.0 0.0 0.00 0.00 0.06 59 1019.0
20211016224521 61 284 0.0 0.0 0.00 0.00 0.06 58 1018.9
20211016223021 61 284 0.0 0.0 0.00 0.00 0.06 57 1018.9
20211016221533 62 284 0.0 0.0 0.00 0.00 0.06 55 1018.7
20211016220010 63 10 0.0 0.0 0.00 0.00 0.06 51 1018.6
20211016214504 63 5 0.0 0.0 0.00 0.00 0.06 51 1018.5
20211016213116 63 269 0.9 0.0 0.00 0.00 0.06 50 1018.4
20211016211734 64 311 0.9 0.0 0.00 0.00 0.06 48 1018.4
20211016210158 64 282 0.0 0.0 0.00 0.00 0.06 48 1018.2
20211016204624 64 5 0.0 0.0 0.00 0.00 0.06 51 1018.1
20211016203121 64 350 0.9 0.0 0.00 0.00 0.06 49 1018.1
20211016201551 64 279 0.9 0.0 0.00 0.00 0.06 48 1018.0
20211016200107 65 351 0.9 0.0 0.00 0.00 0.06 46 1018.1
20211016194545 64 360 0.9 0.0 0.00 0.00 0.06 54 1018.1
20211016193025 64 340 0.9 0.0 0.00 0.00 0.06 54 1018.2
20211016191535 64 273 1.7 0.0 0.00 0.00 0.06 54 1018.1
20211016190027 64 319 1.7 0.0 0.00 0.00 0.06 53 1018.1
20211016184510 64 5 0.9 0.0 0.00 0.00 0.06 57 1018.1
20211016183016 63 17 0.9 0.0 0.00 0.00 0.06 57 1018.2
20211016181501 64 270 0.9 0.0 0.00 0.00 0.06 58 1018.4
20211016180139 64 325 0.9 0.0 0.00 0.00 0.06 59 1018.5
20211016174651 64 311 0.9 0.0 0.00 0.00 0.06 58 1018.6
20211016173136 63 355 0.0 0.0 0.00 0.00 0.06 64 1018.9
20211016171600 62 277 1.7 0.0 0.00 0.00 0.06 65 1019.0
20211016170049 62 283 0.9 0.0 0.00 0.00 0.06 64 1018.9
20211016164616 62 350 0.9 0.0 0.00 0.00 0.06 67 1018.9
20211016163103 61 325 1.7 0.0 0.00 0.00 0.06 69 1018.9
20211016161529 62 331 0.0 0.0 0.00 0.00 0.06 70 1018.7
20211016160049 61 355 0.9 0.0 0.00 0.00 0.06 69 1018.8
20211016154536 60 313 0.9 0.0 0.00 0.00 0.06 69 1018.7